createdAt,value
2019-01-31T05:01:05.143Z,93.20
2019-01-31T05:03:27.611Z,92.80
2019-01-31T05:05:50.054Z,92.70
2019-01-31T05:08:12.548Z,92.40
2019-01-31T05:10:42.709Z,92.20
2019-01-31T05:12:59.472Z,92.20
2019-01-31T06:00:22.180Z,92.00
2019-01-31T06:02:44.746Z,92.00
2019-01-31T06:05:08.022Z,91.90
2019-01-31T06:07:30.590Z,91.90
2019-01-31T06:09:53.027Z,91.90
2019-01-31T06:12:28.179Z,91.90
2019-01-31T06:15:03.321Z,91.90
2019-01-31T07:01:26.022Z,90.90
2019-01-31T07:03:48.492Z,90.80
2019-01-31T07:06:10.931Z,90.50
2019-01-31T07:08:33.387Z,90.40
2019-01-31T07:10:55.913Z,90.20
2019-01-31T07:13:18.395Z,90.00
2019-01-31T08:01:01.724Z,83.10
2019-01-31T08:03:25.326Z,82.80
2019-01-31T08:05:47.772Z,82.80
2019-01-31T08:08:23.291Z,81.70
2019-01-31T08:10:58.210Z,80.10
2019-01-31T08:13:33.228Z,79.90
2019-01-31T09:02:34.435Z,73.20
2019-01-31T09:04:56.975Z,72.40
2019-01-31T09:07:19.438Z,72.10
2019-01-31T09:09:41.865Z,72.80
2019-01-31T09:12:14.741Z,72.30
2019-01-31T09:14:29.038Z,73.50
2019-01-31T10:01:52.597Z,76.40
2019-01-31T10:04:45.782Z,75.60
2019-01-31T10:07:40.302Z,76.00
2019-01-31T10:10:30.833Z,77.00
2019-01-31T10:13:25.556Z,76.90
2019-01-31T11:01:49.612Z,62.40
2019-01-31T11:04:52.639Z,59.30
2019-01-31T11:07:37.650Z,57.00
2019-01-31T11:10:49.382Z,59.20
2019-01-31T11:13:35.179Z,66.20
2019-01-31T11:56:26.247Z,79.00
2019-01-31T11:59:05.710Z,80.10
2019-01-31T12:01:28.383Z,80.50
2019-01-31T12:04:00.919Z,81.10
2019-01-31T12:06:24.026Z,81.10
2019-01-31T12:08:49.831Z,82.10
2019-01-31T12:11:12.340Z,80.80
2019-01-31T12:13:34.870Z,81.10
2019-01-31T13:00:15.434Z,66.80
2019-01-31T13:02:37.986Z,71.70
2019-01-31T13:05:00.522Z,72.60
2019-01-31T13:07:42.715Z,69.10
2019-01-31T13:10:18.843Z,67.20
2019-01-31T13:12:53.842Z,64.90
2019-01-31T13:20:59.030Z,60.00
2019-01-31T13:23:21.559Z,62.80
2019-01-31T13:25:44.176Z,63.50
2019-01-31T13:28:26.110Z,63.20
2019-01-31T13:31:01.227Z,65.30
2019-01-31T13:33:36.255Z,62.20
2019-01-31T13:36:11.394Z,63.10
2019-01-31T13:38:46.375Z,67.10
2019-01-31T13:41:21.497Z,68.30
2019-01-31T13:43:57.870Z,73.60
2019-01-31T13:46:32.704Z,69.80
2019-01-31T13:49:07.833Z,62.30
2019-01-31T13:51:42.679Z,60.50
2019-01-31T13:57:08.935Z,51.50
2019-01-31T13:59:43.931Z,53.90
2019-01-31T14:05:10.396Z,58.40
2019-01-31T14:13:17.926Z,56.70
2019-01-31T14:18:31.959Z,57.90
2019-01-31T14:20:54.748Z,58.60
2019-01-31T14:23:19.036Z,58.30
2019-01-31T14:25:43.401Z,60.40
2019-01-31T14:28:06.027Z,61.10
2019-01-31T14:33:46.763Z,65.40
2019-01-31T14:36:22.595Z,68.70
2019-01-31T14:38:58.268Z,68.00
2019-01-31T16:12:50.329Z,89.60
2019-01-31T16:32:49.718Z,90.80
2019-01-31T18:56:15.874Z,92.60
2019-01-31T18:58:38.861Z,92.60
